Cokercreek, Tennessee
Current Conditions -  °F | °C
As of 4:35 AM on Monday 24 Nov 2014 (Local Time) from KMMI Reporting Station
Broken Clouds Broken Clouds  
Wind Chill: 61°   Ceiling: 4900
Heat Index: 61°   Visibility: 10mi
Dew Point: 54°   Wind: 13mph
Humidity: 77%   Direction: 200°SSW
Pressure: 29.67"   Gusts: 24mph
Location:  35.27°N, 84.29°W
Report Text: KMMI 240935Z AUTO 20011G21KT 150V240 10SM SCT027 SCT032 BKN049 16/12 A2967 RMK
Loading
Personal Weather Stations






























Interactive Weather Map New forecast layout! Learn more

10-Day Weather Forecast

Advertisements
Track Severe Weather on mobile